createdAt,value
2017-10-17T00:00:20.064Z,16.90
2017-10-17T00:02:47.624Z,18.60
2017-10-17T00:05:15.142Z,19.10
2017-10-17T00:07:43.428Z,18.17
2017-10-17T00:10:11.522Z,19.10
2017-10-17T00:12:39.031Z,19.07
2017-10-17T00:15:06.544Z,20.20
2017-10-17T00:17:34.103Z,18.70
2017-10-17T00:20:01.625Z,18.50
2017-10-17T00:22:29.904Z,17.63
2017-10-17T00:25:01.598Z,18.37
2017-10-17T00:27:29.116Z,18.53
2017-10-17T00:29:57.409Z,19.80
2017-10-17T00:32:25.710Z,20.20
2017-10-17T00:34:53.367Z,18.57
2017-10-17T00:37:20.871Z,19.30
2017-10-17T00:39:48.427Z,18.80
2017-10-17T00:42:15.963Z,19.60
2017-10-17T00:44:43.485Z,20.10
2017-10-17T00:47:11.828Z,20.50
2017-10-17T00:49:39.347Z,19.53
2017-10-17T00:52:06.885Z,21.40
2017-10-17T00:54:34.443Z,20.27
2017-10-17T00:57:02.232Z,18.60
2017-10-17T00:59:36.220Z,19.77
2017-10-17T01:02:03.740Z,20.73
2017-10-17T01:04:31.241Z,20.93
2017-10-17T01:06:58.767Z,20.60
2017-10-17T01:09:26.260Z,21.30
2017-10-17T01:11:53.771Z,20.30
2017-10-17T01:14:21.301Z,20.60
2017-10-17T01:16:48.824Z,21.50
2017-10-17T01:19:16.345Z,21.00
2017-10-17T01:21:44.210Z,19.00
2017-10-17T01:24:11.983Z,18.77
2017-10-17T01:26:39.516Z,19.47
2017-10-17T01:29:15.320Z,19.37
2017-10-17T01:31:46.216Z,17.87
2017-10-17T01:34:14.539Z,20.10
2017-10-17T01:36:42.895Z,19.60
2017-10-17T01:39:10.411Z,17.23
2017-10-17T01:41:38.317Z,16.30
2017-10-17T01:44:13.301Z,17.10
2017-10-17T01:46:45.212Z,19.00
2017-10-17T01:49:12.738Z,18.73
2017-10-17T01:51:54.003Z,18.37
2017-10-17T01:54:22.447Z,18.73
2017-10-17T01:56:50.737Z,19.40
2017-10-17T01:59:23.075Z,17.93
2017-10-17T02:01:50.581Z,19.23
2017-10-17T02:04:18.103Z,19.20
2017-10-17T02:06:45.625Z,18.20
2017-10-17T02:09:13.143Z,18.70
2017-10-17T02:11:40.667Z,17.23
2017-10-17T02:14:08.202Z,17.87
2017-10-17T02:16:35.720Z,18.43
2017-10-17T02:22:13.804Z,18.80
2017-10-17T02:24:44.795Z,20.07
2017-10-17T02:27:12.327Z,18.50
2017-10-17T02:29:54.718Z,18.60
2017-10-17T02:32:22.250Z,19.03
2017-10-17T02:34:54.542Z,20.80
2017-10-17T02:37:22.050Z,18.90
2017-10-17T02:39:49.579Z,18.00
2017-10-17T02:42:17.139Z,18.10
2017-10-17T02:44:44.644Z,18.03
2017-10-17T02:47:12.157Z,18.17
2017-10-17T02:49:42.505Z,16.67
2017-10-17T02:52:17.671Z,17.57
2017-10-17T02:54:45.861Z,18.40
2017-10-17T02:57:13.352Z,15.90
2017-10-17T03:00:01.564Z,17.40
2017-10-17T03:02:32.468Z,16.10
2017-10-17T03:05:08.725Z,14.50
2017-10-17T03:07:36.288Z,16.20
2017-10-17T03:10:03.791Z,15.10
2017-10-17T03:12:31.320Z,15.73
2017-10-17T03:15:14.487Z,15.00
2017-10-17T03:17:41.996Z,15.97
2017-10-17T03:20:09.558Z,13.97
2017-10-17T03:22:37.112Z,12.33
2017-10-17T03:25:20.358Z,13.47
2017-10-17T03:27:49.374Z,12.60
2017-10-17T03:30:16.890Z,13.00
2017-10-17T03:32:45.823Z,13.97
2017-10-17T03:35:15.883Z,11.67
2017-10-17T03:41:02.186Z,13.07
2017-10-17T03:46:28.800Z,13.53
2017-10-17T03:48:56.465Z,12.50
2017-10-17T03:51:24.168Z,13.00
2017-10-17T03:53:51.695Z,12.53
2017-10-17T03:56:20.137Z,12.50
2017-10-17T03:58:48.442Z,13.00
2017-10-17T04:01:15.987Z,11.83
2017-10-17T04:03:53.493Z,11.37
2017-10-17T04:06:52.456Z,11.87
2017-10-17T04:09:20.733Z,12.57
2017-10-17T04:11:49.019Z,11.83
2017-10-17T04:14:33.218Z,10.60
2017-10-17T04:17:03.657Z,11.20
2017-10-17T04:19:40.816Z,11.30
2017-10-17T04:25:31.393Z,9.10
2017-10-17T04:28:13.530Z,9.30
2017-10-17T04:30:59.481Z,9.90
2017-10-17T04:33:49.251Z,8.73
2017-10-17T04:36:18.381Z,9.30
2017-10-17T04:38:45.911Z,9.40
2017-10-17T04:41:13.458Z,11.07
2017-10-17T04:44:01.994Z,11.60
2017-10-17T04:46:31.060Z,9.90
2017-10-17T04:49:16.214Z,9.43
2017-10-17T04:52:03.538Z,9.90
2017-10-17T04:54:41.779Z,9.00
2017-10-17T04:57:12.826Z,9.27
2017-10-17T04:59:47.880Z,8.13
2017-10-17T05:05:42.368Z,9.53
2017-10-17T05:08:21.686Z,9.87
2017-10-17T05:14:04.413Z,9.03
2017-10-17T05:16:44.993Z,9.60
2017-10-17T05:19:21.268Z,9.83
2017-10-17T05:21:54.808Z,9.57
2017-10-17T05:24:33.825Z,11.03
2017-10-17T05:27:02.269Z,10.47
2017-10-17T05:29:29.786Z,9.80
2017-10-17T05:31:58.783Z,11.37
2017-10-17T05:34:28.772Z,10.13
2017-10-17T05:37:13.638Z,10.60
2017-10-17T05:39:53.469Z,11.50
2017-10-17T05:42:21.163Z,11.70
2017-10-17T05:44:50.319Z,11.03
2017-10-17T05:47:44.391Z,11.90
2017-10-17T05:50:13.532Z,13.13
2017-10-17T05:52:41.024Z,11.63
2017-10-17T05:55:08.539Z,11.13
2017-10-17T05:57:36.064Z,14.20
2017-10-17T06:00:03.571Z,11.77
2017-10-17T06:02:31.092Z,12.30
2017-10-17T06:04:58.640Z,14.07
2017-10-17T06:07:26.199Z,12.20
2017-10-17T06:09:53.753Z,11.70
2017-10-17T06:12:21.339Z,10.83
2017-10-17T06:14:48.849Z,10.80
2017-10-17T06:17:17.115Z,12.57
2017-10-17T06:19:45.431Z,11.13
2017-10-17T06:22:12.953Z,12.70
2017-10-17T06:24:41.232Z,11.67
2017-10-17T06:27:08.754Z,11.83
2017-10-17T06:29:36.827Z,11.73
2017-10-17T06:32:04.439Z,12.47
2017-10-17T06:34:31.976Z,13.90
2017-10-17T06:37:00.263Z,12.80
2017-10-17T06:39:28.981Z,14.90
2017-10-17T06:41:56.584Z,12.60
2017-10-17T06:44:24.085Z,13.73
2017-10-17T06:46:51.624Z,13.17
2017-10-17T06:49:19.249Z,12.20
2017-10-17T06:51:46.759Z,12.70
2017-10-17T06:54:14.269Z,12.50
2017-10-17T06:56:41.871Z,12.47
2017-10-17T06:59:10.142Z,14.17
2017-10-17T07:01:38.500Z,13.63
2017-10-17T07:04:06.021Z,13.30
2017-10-17T07:06:33.545Z,13.87
2017-10-17T07:09:01.080Z,13.73
2017-10-17T07:11:28.617Z,14.10
2017-10-17T07:13:56.145Z,14.47
2017-10-17T07:16:23.668Z,15.67
2017-10-17T07:18:53.141Z,12.53
2017-10-17T07:21:20.810Z,12.90
2017-10-17T07:23:48.321Z,14.83
2017-10-17T07:26:15.872Z,16.70
2017-10-17T07:28:43.402Z,14.03
2017-10-17T07:31:10.911Z,15.03
2017-10-17T07:33:38.470Z,13.60
2017-10-17T07:36:06.921Z,14.17
2017-10-17T07:38:35.188Z,15.67
2017-10-17T07:41:03.501Z,13.93
2017-10-17T07:43:31.037Z,14.90
2017-10-17T07:45:59.367Z,15.33
2017-10-17T07:48:26.884Z,13.00
2017-10-17T07:50:54.401Z,13.40
2017-10-17T07:53:21.920Z,14.20
2017-10-17T07:55:49.444Z,13.50
2017-10-17T07:58:17.709Z,12.67
2017-10-17T08:00:45.224Z,12.57
2017-10-17T08:03:12.749Z,13.87
2017-10-17T08:05:40.285Z,13.83
2017-10-17T08:08:08.609Z,12.57
2017-10-17T08:10:36.129Z,12.13
2017-10-17T08:13:03.651Z,12.77
2017-10-17T08:15:31.190Z,11.50
2017-10-17T08:17:58.685Z,11.83
2017-10-17T08:20:27.711Z,12.87
2017-10-17T08:22:55.708Z,11.03
2017-10-17T08:25:23.209Z,11.87
2017-10-17T08:27:50.720Z,11.97
2017-10-17T08:30:18.254Z,10.33
2017-10-17T08:32:47.140Z,11.17
2017-10-17T08:35:15.422Z,10.60
2017-10-17T08:37:43.731Z,10.43
2017-10-17T08:40:11.837Z,9.97
2017-10-17T08:42:39.447Z,10.10
2017-10-17T08:45:07.007Z,10.40
2017-10-17T08:47:34.516Z,11.97
2017-10-17T08:50:02.049Z,10.97
2017-10-17T08:52:29.600Z,11.70
2017-10-17T08:54:57.105Z,10.50
2017-10-17T08:57:24.641Z,8.50
2017-10-17T08:59:52.179Z,8.93
2017-10-17T09:02:19.686Z,8.20
2017-10-17T09:04:47.190Z,9.07
2017-10-17T09:07:15.947Z,10.40
2017-10-17T09:09:43.502Z,9.70
2017-10-17T09:12:11.793Z,9.03
2017-10-17T09:14:39.940Z,8.93
2017-10-17T09:17:07.517Z,7.80
2017-10-17T09:19:35.804Z,8.70
2017-10-17T09:22:03.399Z,7.20
2017-10-17T09:24:30.976Z,9.60
2017-10-17T09:26:59.289Z,9.80
2017-10-17T09:29:27.588Z,7.30
2017-10-17T09:31:55.537Z,9.40
2017-10-17T09:34:23.814Z,7.00
2017-10-17T09:36:53.217Z,9.90
2017-10-17T09:39:21.499Z,8.70
2017-10-17T09:41:49.821Z,7.60
2017-10-17T09:44:17.355Z,7.63
2017-10-17T09:46:44.872Z,8.17
2017-10-17T09:49:12.371Z,8.87
2017-10-17T09:51:39.909Z,7.50
2017-10-17T09:54:08.195Z,7.70
2017-10-17T09:56:36.465Z,8.50
2017-10-17T09:59:04.302Z,7.80
2017-10-17T10:01:32.334Z,7.70
2017-10-17T10:04:00.648Z,7.50
2017-10-17T10:06:28.172Z,7.47
2017-10-17T10:08:55.664Z,8.07
2017-10-17T10:11:23.829Z,7.70
2017-10-17T10:13:52.716Z,7.77
2017-10-17T10:16:21.175Z,7.33
2017-10-17T10:18:49.521Z,8.30
2017-10-17T10:21:17.126Z,8.90
2017-10-17T10:23:45.116Z,9.43
2017-10-17T10:26:14.381Z,8.70
2017-10-17T10:28:43.686Z,9.50
2017-10-17T10:31:12.033Z,7.63
2017-10-17T10:33:40.292Z,8.10
2017-10-17T10:36:07.819Z,8.90
2017-10-17T10:38:36.034Z,9.77
2017-10-17T10:41:03.616Z,9.60
2017-10-17T10:43:31.165Z,10.30
2017-10-17T10:45:59.441Z,9.10
2017-10-17T10:48:27.720Z,8.60
2017-10-17T10:50:56.031Z,7.57
2017-10-17T10:53:24.172Z,9.37
2017-10-17T10:55:51.855Z,8.40
2017-10-17T10:58:19.844Z,9.43
2017-10-17T11:00:47.465Z,8.93
2017-10-17T11:03:15.739Z,8.60
2017-10-17T11:05:44.033Z,8.60
2017-10-17T11:08:11.547Z,8.60
2017-10-17T11:10:39.045Z,7.83
2017-10-17T11:13:06.755Z,9.47
2017-10-17T11:15:34.257Z,8.90
2017-10-17T11:18:02.517Z,9.20
2017-10-17T11:20:30.032Z,7.63
2017-10-17T11:22:57.554Z,8.97
2017-10-17T11:25:25.053Z,8.47
2017-10-17T11:27:52.573Z,7.50
2017-10-17T11:30:20.074Z,8.97
2017-10-17T11:32:47.573Z,8.83
2017-10-17T11:35:15.871Z,9.07
2017-10-17T11:37:44.432Z,8.70
2017-10-17T11:40:12.143Z,9.60
2017-10-17T11:42:51.722Z,10.70
2017-10-17T11:45:19.242Z,8.70
2017-10-17T11:47:46.764Z,8.30
2017-10-17T11:50:15.093Z,9.67
2017-10-17T11:52:42.589Z,7.87
2017-10-17T11:55:10.889Z,8.07
2017-10-17T11:57:38.438Z,8.20
2017-10-17T12:00:06.700Z,9.50
2017-10-17T12:02:34.610Z,7.87
2017-10-17T12:05:02.432Z,8.73
2017-10-17T12:07:29.936Z,8.50
2017-10-17T12:09:58.119Z,7.50
2017-10-17T12:12:26.450Z,8.77
2017-10-17T12:14:54.726Z,8.67
2017-10-17T12:17:23.012Z,7.37
2017-10-17T12:19:51.353Z,9.67
2017-10-17T12:22:18.880Z,7.63
2017-10-17T12:24:46.395Z,7.43
2017-10-17T12:27:14.689Z,8.33
2017-10-17T12:29:42.979Z,9.00
2017-10-17T12:32:10.877Z,9.40
2017-10-17T12:34:38.435Z,8.77
2017-10-17T12:37:06.217Z,8.70
2017-10-17T12:39:34.342Z,8.50
2017-10-17T12:42:02.105Z,9.47
2017-10-17T12:44:29.610Z,8.37
2017-10-17T12:46:58.004Z,8.60
2017-10-17T12:49:26.020Z,9.33
2017-10-17T12:51:54.268Z,8.13
2017-10-17T12:54:22.353Z,9.20
2017-10-17T12:56:50.032Z,10.13
2017-10-17T12:59:17.746Z,9.40
2017-10-17T13:01:45.248Z,9.83
2017-10-17T13:04:12.772Z,9.57
2017-10-17T13:06:40.281Z,9.50
2017-10-17T13:09:07.813Z,8.80
2017-10-17T13:11:36.128Z,9.30
2017-10-17T13:14:03.672Z,10.97
2017-10-17T13:16:31.187Z,9.67
2017-10-17T13:18:59.506Z,9.47
2017-10-17T13:21:27.008Z,10.37
2017-10-17T13:23:54.516Z,10.63
2017-10-17T13:26:22.061Z,11.43
2017-10-17T13:28:49.730Z,10.70
2017-10-17T13:31:17.253Z,10.77
2017-10-17T13:33:46.319Z,10.37
2017-10-17T13:36:13.859Z,9.90
2017-10-17T13:38:41.398Z,10.70
2017-10-17T13:41:09.230Z,10.57
2017-10-17T13:43:36.747Z,10.13
2017-10-17T13:46:04.720Z,10.53
2017-10-17T13:48:32.320Z,12.57
2017-10-17T13:50:59.854Z,10.40
2017-10-17T13:53:27.365Z,9.80
2017-10-17T13:55:55.267Z,10.37
2017-10-17T13:58:23.339Z,10.53
2017-10-17T14:00:51.514Z,10.00
2017-10-17T14:03:19.217Z,10.67
2017-10-17T14:05:46.717Z,11.80
2017-10-17T14:08:14.347Z,10.17
2017-10-17T14:10:41.901Z,9.17
2017-10-17T14:13:09.397Z,8.03
2017-10-17T14:15:36.901Z,8.27
2017-10-17T14:18:04.433Z,8.40
2017-10-17T14:20:31.935Z,8.93
2017-10-17T14:22:59.518Z,8.03
2017-10-17T14:25:27.826Z,8.13
2017-10-17T14:27:55.335Z,8.27
2017-10-17T14:30:22.860Z,8.40
2017-10-17T14:32:50.384Z,8.93
2017-10-17T14:35:18.755Z,8.10
2017-10-17T14:37:46.266Z,8.23
2017-10-17T14:40:17.461Z,7.40
2017-10-17T14:42:46.456Z,8.20
2017-10-17T14:45:14.025Z,7.20
2017-10-17T14:47:42.232Z,7.90
2017-10-17T14:50:10.391Z,8.00
2017-10-17T14:52:37.915Z,8.63
2017-10-17T14:55:06.236Z,9.00
2017-10-17T14:57:33.760Z,9.17
2017-10-17T15:00:01.367Z,9.00
2017-10-17T15:02:29.025Z,7.67
2017-10-17T15:04:57.190Z,9.10
2017-10-17T15:07:26.919Z,7.07
2017-10-17T15:09:54.773Z,7.53
2017-10-17T15:12:23.242Z,8.80
2017-10-17T15:14:50.960Z,7.67
2017-10-17T15:17:18.557Z,8.10
2017-10-17T15:19:46.079Z,8.10
2017-10-17T15:22:15.459Z,8.20
2017-10-17T15:24:42.975Z,8.13
2017-10-17T15:27:10.479Z,8.70
2017-10-17T15:29:38.014Z,7.97
2017-10-17T15:32:05.568Z,8.17
2017-10-17T15:34:33.088Z,8.87
2017-10-17T15:37:01.357Z,7.70
2017-10-17T15:39:29.290Z,8.40
2017-10-17T15:41:56.839Z,7.10
2017-10-17T15:44:24.354Z,8.33
2017-10-17T15:46:52.712Z,8.30
2017-10-17T15:49:20.998Z,8.50
2017-10-17T15:51:49.621Z,8.67
2017-10-17T15:54:17.182Z,6.97
2017-10-17T15:56:44.712Z,8.70
2017-10-17T15:59:12.312Z,7.83
2017-10-17T16:01:41.191Z,7.03
2017-10-17T16:04:08.851Z,21.47
2017-10-17T16:06:36.362Z,7.50
2017-10-17T16:09:04.792Z,9.13
2017-10-17T16:11:32.318Z,13.97
2017-10-17T16:14:00.676Z,15.80
2017-10-17T16:16:28.989Z,15.70
2017-10-17T16:18:56.497Z,8.03
2017-10-17T16:21:24.016Z,12.03
2017-10-17T16:23:51.764Z,16.03
2017-10-17T16:26:19.804Z,12.83
2017-10-17T16:28:47.384Z,12.93
2017-10-17T16:31:15.128Z,13.00
2017-10-17T16:33:43.438Z,12.10
2017-10-17T16:36:10.953Z,12.83
2017-10-17T16:38:38.499Z,9.83
2017-10-17T16:41:06.061Z,10.80
2017-10-17T16:43:34.051Z,20.53
2017-10-17T16:46:02.841Z,12.17
2017-10-17T16:48:31.150Z,12.60
2017-10-17T16:50:58.720Z,25.33
2017-10-17T16:53:26.806Z,11.60
2017-10-17T16:55:54.775Z,9.47
2017-10-17T16:58:22.333Z,10.60
2017-10-17T17:00:49.883Z,10.80
2017-10-17T17:03:17.456Z,13.33
2017-10-17T17:05:44.973Z,10.77
2017-10-17T17:08:13.467Z,14.43
2017-10-17T17:10:41.103Z,12.60
2017-10-17T17:13:09.669Z,13.40
2017-10-17T17:15:37.368Z,12.33
2017-10-17T17:18:04.951Z,10.20
2017-10-17T17:20:32.511Z,9.13
2017-10-17T17:23:04.455Z,10.33
2017-10-17T17:25:32.185Z,10.50
2017-10-17T17:28:02.078Z,23.00
2017-10-17T17:30:31.292Z,14.03
2017-10-17T17:33:00.463Z,32.23
2017-10-17T17:35:28.657Z,19.97
2017-10-17T17:38:22.029Z,12.63
2017-10-17T17:40:57.949Z,10.00
2017-10-17T17:43:25.865Z,12.53
2017-10-17T17:45:54.329Z,8.80
2017-10-17T17:48:23.845Z,9.90
2017-10-17T17:50:54.090Z,18.30
2017-10-17T17:53:22.523Z,9.70
2017-10-17T17:55:51.199Z,11.27
2017-10-17T17:58:19.073Z,12.20
2017-10-17T18:00:48.368Z,10.37
2017-10-17T18:03:19.193Z,7.77
2017-10-17T18:05:47.481Z,10.13
2017-10-17T18:08:16.064Z,11.53
2017-10-17T18:10:44.956Z,8.43
2017-10-17T18:13:13.027Z,8.73
2017-10-17T18:15:41.611Z,9.30
2017-10-17T18:18:11.116Z,12.87
2017-10-17T18:20:39.197Z,9.30
2017-10-17T18:23:08.591Z,14.70
2017-10-17T18:25:37.688Z,8.33
2017-10-17T18:28:06.783Z,10.07
2017-10-17T18:30:36.164Z,8.77
2017-10-17T18:33:04.565Z,8.50
2017-10-17T18:35:34.276Z,7.90
2017-10-17T18:38:03.883Z,9.07
2017-10-17T18:40:33.176Z,7.10
2017-10-17T18:43:02.280Z,10.73
2017-10-17T18:45:31.105Z,8.90
2017-10-17T18:48:00.472Z,16.43
2017-10-17T18:50:28.958Z,11.00
2017-10-17T18:52:58.644Z,7.77
2017-10-17T18:55:27.042Z,8.40
2017-10-17T18:57:56.849Z,10.87
2017-10-17T19:00:27.158Z,8.67
2017-10-17T19:02:55.562Z,7.67
2017-10-17T19:05:24.711Z,7.90
2017-10-17T19:07:52.829Z,8.03
2017-10-17T19:10:21.313Z,7.87
2017-10-17T19:12:50.203Z,11.07
2017-10-17T19:15:18.171Z,8.77
2017-10-17T19:17:46.039Z,7.73
2017-10-17T19:20:14.625Z,7.80
2017-10-17T19:22:42.488Z,8.33
2017-10-17T19:25:10.293Z,7.80
2017-10-17T19:27:38.939Z,8.87
2017-10-17T19:30:06.750Z,7.73
2017-10-17T19:32:34.878Z,6.97
2017-10-17T19:35:03.366Z,8.47
2017-10-17T19:37:30.997Z,7.67
2017-10-17T19:39:58.608Z,7.17
2017-10-17T19:42:27.466Z,8.13
2017-10-17T19:44:55.105Z,8.10
2017-10-17T19:47:22.851Z,7.80
2017-10-17T19:49:50.765Z,8.73
2017-10-17T19:52:18.409Z,7.73
2017-10-17T19:54:46.141Z,8.27
2017-10-17T19:57:14.457Z,8.27
2017-10-17T19:59:42.236Z,6.70
2017-10-17T20:02:09.814Z,7.77
2017-10-17T20:04:37.557Z,8.80
2017-10-17T20:07:05.206Z,7.70
2017-10-17T20:09:32.751Z,8.60
2017-10-17T20:12:00.304Z,8.50
2017-10-17T20:14:28.632Z,8.33
2017-10-17T20:16:56.242Z,7.50
2017-10-17T20:19:24.553Z,9.37
2017-10-17T20:21:52.086Z,7.90
2017-10-17T20:24:19.644Z,9.00
2017-10-17T20:26:47.936Z,7.23
2017-10-17T20:29:15.486Z,8.27
2017-10-17T20:31:43.037Z,8.53
2017-10-17T20:34:11.342Z,7.73
2017-10-17T20:36:38.863Z,8.67
2017-10-17T20:39:07.235Z,8.30
2017-10-17T20:41:35.256Z,9.33
2017-10-17T20:44:02.897Z,8.17
2017-10-17T20:46:30.490Z,9.47
2017-10-17T20:48:58.017Z,10.20
2017-10-17T20:51:25.988Z,9.63
2017-10-17T20:53:53.580Z,9.13
2017-10-17T20:56:21.080Z,8.53
2017-10-17T20:58:49.356Z,8.60
2017-10-17T21:01:17.649Z,9.67
2017-10-17T21:03:45.936Z,10.30
2017-10-17T21:06:13.458Z,8.23
2017-10-17T21:08:40.974Z,9.20
2017-10-17T21:11:08.502Z,10.23
2017-10-17T21:13:36.779Z,9.03
2017-10-17T21:16:04.343Z,9.90
2017-10-17T21:18:31.903Z,10.03
2017-10-17T21:20:59.498Z,10.63
2017-10-17T21:23:27.286Z,10.70
2017-10-17T21:25:55.556Z,9.97
2017-10-17T21:28:23.370Z,9.30
2017-10-17T21:30:50.951Z,9.70
2017-10-17T21:33:18.475Z,10.10
2017-10-17T21:35:46.768Z,10.57
2017-10-17T21:38:15.212Z,10.03
2017-10-17T21:40:42.922Z,11.47
2017-10-17T21:43:11.389Z,13.07
2017-10-17T21:45:40.596Z,10.80
2017-10-17T21:48:08.152Z,11.10
2017-10-17T21:50:35.716Z,11.53
2017-10-17T21:53:03.248Z,11.13
2017-10-17T21:55:31.560Z,12.13
2017-10-17T21:57:59.079Z,14.13
2017-10-17T22:03:32.961Z,10.60
2017-10-17T22:06:00.495Z,11.60
2017-10-17T22:08:28.023Z,13.50
2017-10-17T22:10:55.547Z,11.60
2017-10-17T22:13:23.084Z,12.60
2017-10-17T22:15:50.604Z,12.80
2017-10-17T22:18:18.114Z,12.60
2017-10-17T22:20:45.684Z,13.43
2017-10-17T22:23:13.203Z,14.77
2017-10-17T22:25:41.814Z,14.57
2017-10-17T22:28:09.360Z,15.07
2017-10-17T22:30:36.876Z,14.37
2017-10-17T22:33:04.407Z,15.50
2017-10-17T22:35:32.363Z,14.53
2017-10-17T22:37:59.944Z,14.00
2017-10-17T22:40:27.462Z,14.33
2017-10-17T22:42:54.980Z,14.03
2017-10-17T22:45:22.508Z,13.87
2017-10-17T22:47:50.393Z,13.83
2017-10-17T22:50:18.780Z,15.10
2017-10-17T22:52:46.379Z,15.80
2017-10-17T22:55:14.666Z,13.60
2017-10-17T22:57:42.257Z,14.37
2017-10-17T23:00:09.807Z,16.90
2017-10-17T23:02:37.325Z,13.87
2017-10-17T23:05:05.615Z,16.10
2017-10-17T23:07:33.173Z,15.83
2017-10-17T23:10:00.703Z,17.97
2017-10-17T23:12:28.914Z,16.37
2017-10-17T23:14:57.518Z,16.17
2017-10-17T23:17:36.875Z,16.53
2017-10-17T23:20:16.455Z,16.77
2017-10-17T23:22:44.752Z,17.17
2017-10-17T23:25:12.269Z,16.67
2017-10-17T23:27:39.868Z,17.10
2017-10-17T23:30:07.470Z,17.30
2017-10-17T23:32:34.974Z,17.23
2017-10-17T23:35:03.295Z,17.40
2017-10-17T23:37:30.811Z,19.20
2017-10-17T23:39:59.104Z,17.27
2017-10-17T23:42:26.992Z,19.00
2017-10-17T23:44:55.053Z,18.77
2017-10-17T23:47:23.368Z,19.83
2017-10-17T23:49:50.889Z,20.63
2017-10-17T23:52:18.401Z,22.17
2017-10-17T23:54:45.949Z,21.10
2017-10-17T23:57:13.491Z,21.90
2017-10-17T23:59:41.017Z,23.13
